Time;durP1;ratioP1;P1;durP2;ratioP2;P2;SDS_P1;SDS_P2;PMS_P1;PMS_P2;Temp;Humidity;BMP_temperature;BMP_pressure;BME280_temperature;BME280_humidity;BME280_pressure;Samples;Min_cycle;Max_cycle;Signal;HPM_P1;HPM_P2
2022/08/09 00:01:28;;;;;;;;;10.33;10.33;;;;;;;;5097909;27;46565;-78
2022/08/09 00:03:53;;;;;;;;;10.67;10.67;;;;;;;;5098202;27;45262;-77
2022/08/09 00:06:19;;;;;;;;;11.33;9.00;;;;;;;;5097766;27;45454;-78
2022/08/09 00:08:47;;;;;;;;;11.00;9.00;;;;;;;;5098087;27;45481;-78
2022/08/09 00:11:12;;;;;;;;;10.33;9.33;;;;;;;;5097741;27;46538;-78
2022/08/09 00:13:38;;;;;;;;;11.33;8.00;;;;;;;;5097808;27;45399;-78
2022/08/09 00:16:03;;;;;;;;;11.00;11.00;;;;;;;;5097994;27;45220;-77
2022/08/09 00:18:29;;;;;;;;;10.00;8.33;;;;;;;;5097963;27;45210;-78
2022/08/09 00:20:54;;;;;;;;;8.33;7.00;;;;;;;;5097776;27;45518;-77
2022/08/09 00:23:20;;;;;;;;;14.00;10.33;;;;;;;;5097388;27;45253;-77
2022/08/09 00:25:45;;;;;;;;;7.00;7.00;;;;;;;;5079473;27;45344;-78
2022/08/09 00:28:11;;;;;;;;;9.67;9.67;;;;;;;;5098186;27;45338;-81
2022/08/09 00:30:36;;;;;;;;;8.33;8.33;;;;;;;;5097599;27;46518;-78
2022/08/09 00:33:01;;;;;;;;;11.00;9.67;;;;;;;;5097691;27;45382;-79
2022/08/09 00:35:27;;;;;;;;;14.00;10.00;;;;;;;;5097726;27;45268;-77
2022/08/09 00:37:52;;;;;;;;;9.00;8.00;;;;;;;;5097982;27;45269;-78
2022/08/09 00:40:17;;;;;;;;;12.00;10.67;;;;;;;;5097464;27;46100;-77
2022/08/09 00:42:43;;;;;;;;;8.00;8.00;;;;;;;;5100495;27;45176;-80
2022/08/09 00:45:08;;;;;;;;;7.00;7.00;;;;;;;;5101236;27;45364;-78
2022/08/09 00:47:33;;;;;;;;;10.67;9.33;;;;;;;;5101365;27;45325;-78
2022/08/09 00:49:59;;;;;;;;;10.00;9.00;;;;;;;;5100986;27;45595;-81
2022/08/09 00:52:25;;;;;;;;;8.00;8.00;;;;;;;;5100983;27;45500;-78
2022/08/09 00:54:52;;;;;;;;;11.00;9.33;;;;;;;;5082626;27;45340;-79
2022/08/09 00:57:17;;;;;;;;;8.00;8.00;;;;;;;;5101152;27;45464;-79
2022/08/09 00:59:44;;;;;;;;;9.00;9.00;;;;;;;;5100687;27;45400;-78
2022/08/09 01:02:09;;;;;;;;;7.00;7.00;;;;;;;;5100863;27;45427;-81
2022/08/09 01:04:43;;;;;;;;;9.67;7.33;;;;;;;;5100753;27;45274;-80
2022/08/09 01:07:21;;;;;;;;;9.67;8.00;;;;;;;;5100653;27;45249;-78
2022/08/09 01:09:52;;;;;;;;;7.00;7.00;;;;;;;;5082093;27;47003;-78
2022/08/09 01:12:36;;;;;;;;;8.00;6.33;;;;;;;;5100753;27;45859;-80
2022/08/09 01:15:06;;;;;;;;;7.67;7.67;;;;;;;;5100793;27;45376;-80
2022/08/09 01:17:37;;;;;;;;;11.00;8.00;;;;;;;;5100610;27;45289;-78
2022/08/09 01:20:05;;;;;;;;;5.33;3.33;;;;;;;;5100223;27;47172;-79
2022/08/09 01:22:48;;;;;;;;;10.00;9.00;;;;;;;;5100428;27;45414;-78
2022/08/09 01:25:33;;;;;;;;;9.33;7.00;;;;;;;;5100660;27;45439;-77
2022/08/09 01:28:00;;;;;;;;;9.00;8.67;;;;;;;;5100700;27;45197;-78
2022/08/09 01:30:27;;;;;;;;;8.00;8.00;;;;;;;;5100271;27;45368;-78
2022/08/09 01:32:54;;;;;;;;;8.33;7.00;;;;;;;;5100170;27;45292;-77
2022/08/09 01:35:23;;;;;;;;;7.00;7.00;;;;;;;;5100353;27;45319;-78
2022/08/09 01:37:50;;;;;;;;;9.00;7.33;;;;;;;;5100458;27;45393;-78
2022/08/09 01:40:17;;;;;;;;;8.33;7.67;;;;;;;;5099950;27;45301;-78
2022/08/09 01:42:42;;;;;;;;;11.67;9.33;;;;;;;;5100086;27;45321;-77
2022/08/09 01:45:08;;;;;;;;;9.00;8.00;;;;;;;;5100037;27;45225;-78
2022/08/09 01:47:34;;;;;;;;;8.67;8.00;;;;;;;;5100579;27;45460;-81
2022/08/09 01:50:02;;;;;;;;;8.33;8.33;;;;;;;;5099966;27;46128;-77
2022/08/09 01:52:28;;;;;;;;;9.67;8.00;;;;;;;;5099083;27;45404;-78
2022/08/09 01:54:55;;;;;;;;;9.00;6.00;;;;;;;;5099726;27;45533;-77
2022/08/09 01:57:27;;;;;;;;;13.67;7.67;;;;;;;;5100222;27;45390;-78
2022/08/09 01:59:54;;;;;;;;;10.33;9.67;;;;;;;;5099670;27;45442;-77
2022/08/09 02:02:22;;;;;;;;;11.33;9.33;;;;;;;;5099753;27;45283;-77
2022/08/09 02:04:48;;;;;;;;;10.33;10.33;;;;;;;;5099690;27;45425;-77
2022/08/09 02:07:15;;;;;;;;;11.33;9.33;;;;;;;;5099645;27;45522;-80
2022/08/09 02:09:46;;;;;;;;;10.67;10.67;;;;;;;;5099482;27;46990;-78
2022/08/09 02:12:13;;;;;;;;;11.67;10.67;;;;;;;;5099555;27;45249;-81
2022/08/09 02:14:40;;;;;;;;;10.33;9.67;;;;;;;;5099698;27;45401;-80
2022/08/09 02:17:08;;;;;;;;;10.33;9.00;;;;;;;;5099404;27;45479;-78
2022/08/09 02:19:33;;;;;;;;;12.00;8.67;;;;;;;;5098874;27;46343;-77
2022/08/09 02:22:01;;;;;;;;;8.00;7.00;;;;;;;;5099490;27;45481;-77
2022/08/09 02:24:34;;;;;;;;;10.33;8.33;;;;;;;;5099435;27;45422;-80
2022/08/09 02:27:00;;;;;;;;;12.67;11.33;;;;;;;;5099634;27;45458;-78
2022/08/09 02:29:27;;;;;;;;;7.00;7.00;;;;;;;;5098959;27;46621;-78
2022/08/09 02:31:55;;;;;;;;;9.67;9.33;;;;;;;;5099060;27;45291;-81
2022/08/09 02:34:25;;;;;;;;;11.33;11.33;;;;;;;;5099516;27;45385;-78
2022/08/09 02:36:52;;;;;;;;;9.33;8.67;;;;;;;;5099417;27;45203;-78
2022/08/09 02:39:19;;;;;;;;;12.67;9.33;;;;;;;;5098817;27;46529;-79
2022/08/09 02:41:48;;;;;;;;;12.33;11.00;;;;;;;;5098967;27;45436;-78
2022/08/09 02:44:22;;;;;;;;;8.67;8.67;;;;;;;;5099302;27;45386;-78
2022/08/09 02:46:50;;;;;;;;;9.00;9.00;;;;;;;;5099265;27;45606;-81
2022/08/09 02:49:16;;;;;;;;;16.00;13.33;;;;;;;;5098854;27;46358;-77
2022/08/09 02:51:43;;;;;;;;;8.67;8.67;;;;;;;;5099012;27;45332;-79
2022/08/09 02:54:11;;;;;;;;;11.00;9.67;;;;;;;;5098923;27;45436;-79
2022/08/09 02:56:40;;;;;;;;;10.33;9.00;;;;;;;;5099320;27;45313;-79
2022/08/09 02:59:06;;;;;;;;;10.67;10.67;;;;;;;;5098682;27;46512;-78
2022/08/09 03:01:33;;;;;;;;;7.33;7.00;;;;;;;;5098933;27;45296;-79
2022/08/09 03:04:00;;;;;;;;;12.00;9.33;;;;;;;;5098397;27;45433;-78
2022/08/09 03:06:26;;;;;;;;;11.33;11.33;;;;;;;;5098838;27;45852;-77
2022/08/09 03:08:52;;;;;;;;;11.67;10.67;;;;;;;;5098567;27;46203;-80
2022/08/09 03:11:19;;;;;;;;;15.33;12.67;;;;;;;;5098526;27;45348;-77
2022/08/09 03:13:45;;;;;;;;;8.67;8.67;;;;;;;;5098796;27;45210;-79
2022/08/09 03:16:12;;;;;;;;;12.00;10.00;;;;;;;;5098984;27;45225;-79
2022/08/09 03:18:37;;;;;;;;;10.00;10.00;;;;;;;;5098275;27;45510;-80
2022/08/09 03:21:04;;;;;;;;;11.67;10.00;;;;;;;;5098591;27;45269;-79
2022/08/09 03:23:29;;;;;;;;;12.33;12.33;;;;;;;;5098609;27;45391;-78
2022/08/09 03:25:54;;;;;;;;;13.33;10.67;;;;;;;;5098707;27;45425;-77
2022/08/09 03:28:20;;;;;;;;;12.00;8.67;;;;;;;;5098335;27;45699;-77
2022/08/09 03:30:46;;;;;;;;;12.67;11.00;;;;;;;;5098477;27;45395;-78
2022/08/09 03:33:12;;;;;;;;;9.00;7.33;;;;;;;;5098799;27;45415;-78
2022/08/09 03:35:38;;;;;;;;;10.67;10.33;;;;;;;;5098513;27;45476;-79
2022/08/09 03:38:04;;;;;;;;;10.00;9.00;;;;;;;;5098249;27;46180;-77
2022/08/09 03:40:29;;;;;;;;;12.00;10.67;;;;;;;;5097998;27;45467;-79
2022/08/09 03:42:54;;;;;;;;;12.33;10.33;;;;;;;;5098428;27;45233;-79
2022/08/09 03:45:19;;;;;;;;;9.00;9.00;;;;;;;;5098724;27;45415;-80
2022/08/09 03:47:45;;;;;;;;;9.67;8.00;;;;;;;;5098133;27;45363;-77
2022/08/09 03:50:11;;;;;;;;;9.00;7.67;;;;;;;;5098233;27;45428;-80
2022/08/09 03:52:37;;;;;;;;;10.67;8.67;;;;;;;;5079719;27;45435;-78
2022/08/09 03:55:04;;;;;;;;;8.00;8.00;;;;;;;;5098232;27;45268;-78
2022/08/09 03:57:29;;;;;;;;;11.00;9.67;;;;;;;;5097991;27;45318;-79
2022/08/09 03:59:55;;;;;;;;;10.33;10.33;;;;;;;;5097916;27;45362;-78
2022/08/09 04:02:21;;;;;;;;;15.33;12.00;;;;;;;;5098066;27;45368;-78
2022/08/09 04:04:46;;;;;;;;;9.00;9.00;;;;;;;;5098377;27;45496;-80
2022/08/09 04:07:12;;;;;;;;;11.67;8.00;;;;;;;;5097599;27;45931;-78
2022/08/09 04:09:37;;;;;;;;;12.67;10.67;;;;;;;;5097861;27;45418;-78
2022/08/09 04:12:06;;;;;;;;;11.00;11.00;;;;;;;;5098111;27;45497;-78
2022/08/09 04:14:31;;;;;;;;;10.67;10.67;;;;;;;;5098272;27;45422;-79
2022/08/09 04:16:56;;;;;;;;;12.67;11.00;;;;;;;;5099536;27;45233;-78
2022/08/09 04:19:22;;;;;;;;;10.33;10.33;;;;;;;;5101330;27;45171;-78
2022/08/09 04:21:47;;;;;;;;;12.33;10.67;;;;;;;;5101691;27;45274;-78
2022/08/09 04:24:13;;;;;;;;;9.00;9.00;;;;;;;;5101608;27;45207;-78
2022/08/09 04:26:38;;;;;;;;;17.00;11.00;;;;;;;;5101268;27;45447;-78
2022/08/09 04:29:03;;;;;;;;;11.33;10.67;;;;;;;;5101289;27;45427;-77
2022/08/09 04:31:28;;;;;;;;;14.67;11.33;;;;;;;;5101541;27;45340;-78
2022/08/09 04:33:54;;;;;;;;;10.67;10.67;;;;;;;;5101591;27;45367;-78
2022/08/09 04:36:37;;;;;;;;;12.33;11.33;;;;;;;;5101093;27;47345;-78
2022/08/09 04:39:07;;;;;;;;;13.33;13.33;;;;;;;;5101029;27;45234;-83
2022/08/09 04:41:33;;;;;;;;;15.00;14.33;;;;;;;;5101164;27;45384;-77
2022/08/09 04:43:58;;;;;;;;;12.67;12.33;;;;;;;;5101252;27;45645;-77
2022/08/09 04:46:23;;;;;;;;;11.00;11.00;;;;;;;;5101182;27;46138;-78
2022/08/09 04:48:49;;;;;;;;;11.33;11.00;;;;;;;;5101085;27;45197;-78
2022/08/09 04:51:14;;;;;;;;;16.67;13.00;;;;;;;;5101177;27;45228;-78
2022/08/09 04:53:40;;;;;;;;;14.00;11.00;;;;;;;;5101066;27;45221;-78
2022/08/09 04:56:05;;;;;;;;;15.67;13.00;;;;;;;;5100542;27;46638;-78
2022/08/09 04:58:31;;;;;;;;;17.00;13.00;;;;;;;;5100805;27;45329;-78
2022/08/09 05:00:56;;;;;;;;;17.00;13.33;;;;;;;;5100985;27;45467;-78
2022/08/09 05:03:22;;;;;;;;;14.33;11.33;;;;;;;;5101055;27;45448;-78
2022/08/09 05:05:47;;;;;;;;;15.00;15.00;;;;;;;;5100531;27;45802;-77
2022/08/09 05:08:12;;;;;;;;;15.33;15.33;;;;;;;;5100595;27;45276;-78
2022/08/09 05:10:38;;;;;;;;;14.00;14.00;;;;;;;;5100601;27;45427;-77
2022/08/09 05:13:03;;;;;;;;;17.00;15.00;;;;;;;;5100905;27;45281;-78
2022/08/09 05:15:28;;;;;;;;;17.67;16.33;;;;;;;;5100442;27;46271;-78
2022/08/09 05:17:54;;;;;;;;;16.67;13.67;;;;;;;;5100582;27;45301;-78
2022/08/09 05:20:20;;;;;;;;;13.67;13.33;;;;;;;;5100616;27;45401;-77
2022/08/09 05:22:45;;;;;;;;;17.00;15.33;;;;;;;;5100714;27;45573;-78
2022/08/09 05:25:11;;;;;;;;;16.00;14.33;;;;;;;;5100173;27;46959;-79
2022/08/09 05:27:36;;;;;;;;;16.00;13.33;;;;;;;;5100080;27;45732;-77
2022/08/09 05:30:01;;;;;;;;;17.33;13.33;;;;;;;;5100480;27;45361;-78
2022/08/09 05:32:26;;;;;;;;;14.33;13.33;;;;;;;;5100478;27;45301;-78
2022/08/09 05:34:52;;;;;;;;;16.00;14.67;;;;;;;;5100209;27;47116;-79
2022/08/09 05:37:17;;;;;;;;;14.33;13.33;;;;;;;;5099971;27;45369;-79
2022/08/09 05:39:42;;;;;;;;;15.33;13.67;;;;;;;;5099872;27;45292;-79
2022/08/09 05:42:08;;;;;;;;;10.67;10.67;;;;;;;;5100412;27;45438;-78
2022/08/09 05:44:33;;;;;;;;;14.33;11.33;;;;;;;;5100048;27;46268;-77
2022/08/09 05:46:59;;;;;;;;;13.33;12.00;;;;;;;;5100170;27;45419;-78
2022/08/09 05:49:24;;;;;;;;;17.67;13.67;;;;;;;;5100267;27;45313;-77
2022/08/09 05:51:50;;;;;;;;;12.00;11.33;;;;;;;;5100278;27;45427;-77
2022/08/09 05:54:15;;;;;;;;;12.33;12.00;;;;;;;;5099916;27;45589;-77
2022/08/09 05:56:40;;;;;;;;;9.67;9.67;;;;;;;;5099914;27;45617;-81
2022/08/09 05:59:06;;;;;;;;;13.33;10.33;;;;;;;;5099939;27;45419;-77
2022/08/09 06:01:31;;;;;;;;;14.33;11.67;;;;;;;;5100192;27;45231;-81
2022/08/09 06:03:57;;;;;;;;;10.33;9.67;;;;;;;;5099704;27;46391;-78
2022/08/09 06:06:22;;;;;;;;;11.00;7.67;;;;;;;;5098774;27;45363;-77
2022/08/09 06:08:48;;;;;;;;;10.00;8.67;;;;;;;;5099759;27;45396;-78
2022/08/09 06:11:13;;;;;;;;;10.67;10.67;;;;;;;;5099899;27;45364;-82
2022/08/09 06:13:38;;;;;;;;;12.33;12.33;;;;;;;;5099355;27;46625;-77
2022/08/09 06:16:04;;;;;;;;;12.00;10.00;;;;;;;;5099815;27;45415;-77
2022/08/09 06:18:29;;;;;;;;;14.00;12.67;;;;;;;;5099723;27;45433;-80
2022/08/09 06:20:55;;;;;;;;;10.33;8.67;;;;;;;;5099951;27;45341;-77
2022/08/09 06:23:21;;;;;;;;;13.33;11.33;;;;;;;;5099350;27;45443;-78
2022/08/09 06:25:46;;;;;;;;;10.00;9.00;;;;;;;;5099232;27;45411;-78
2022/08/09 06:28:11;;;;;;;;;10.00;9.00;;;;;;;;5099785;27;45459;-78
2022/08/09 06:30:36;;;;;;;;;9.33;8.67;;;;;;;;5099519;27;45407;-77
2022/08/09 06:33:02;;;;;;;;;10.67;10.00;;;;;;;;5099380;27;45458;-77
2022/08/09 06:35:27;;;;;;;;;12.00;10.00;;;;;;;;5099280;27;45440;-76
2022/08/09 06:37:52;;;;;;;;;10.00;7.33;;;;;;;;5099415;27;45292;-78
2022/08/09 06:40:19;;;;;;;;;9.67;9.67;;;;;;;;5098740;27;45423;-79
2022/08/09 06:42:44;;;;;;;;;9.33;8.00;;;;;;;;5099293;27;46112;-79
2022/08/09 06:45:10;;;;;;;;;13.00;9.00;;;;;;;;5099213;27;45232;-78
2022/08/09 06:47:35;;;;;;;;;9.33;9.00;;;;;;;;5099341;27;45362;-77
2022/08/09 06:50:00;;;;;;;;;13.33;8.00;;;;;;;;5099323;27;45392;-79
2022/08/09 06:52:26;;;;;;;;;13.67;9.33;;;;;;;;5098524;27;46345;-79
2022/08/09 06:54:51;;;;;;;;;13.33;11.67;;;;;;;;5098860;27;45424;-79
2022/08/09 06:57:16;;;;;;;;;9.00;7.67;;;;;;;;5099670;27;46497;-79
2022/08/09 06:59:42;;;;;;;;;9.00;8.00;;;;;;;;5099271;27;45398;-78
2022/08/09 07:02:07;;;;;;;;;9.00;9.00;;;;;;;;5099012;27;47005;-78
2022/08/09 07:04:32;;;;;;;;;8.00;8.00;;;;;;;;5099342;27;45369;-81
2022/08/09 07:06:58;;;;;;;;;9.00;7.33;;;;;;;;5098859;27;45453;-80
2022/08/09 07:09:23;;;;;;;;;10.00;10.00;;;;;;;;5080729;27;45425;-76
2022/08/09 07:11:49;;;;;;;;;13.67;9.33;;;;;;;;5098722;27;46283;-78
2022/08/09 07:14:16;;;;;;;;;9.33;7.33;;;;;;;;5098815;27;45352;-81
2022/08/09 07:16:42;;;;;;;;;8.00;8.00;;;;;;;;5098836;27;45384;-79
2022/08/09 07:19:10;;;;;;;;;7.00;7.00;;;;;;;;5098956;27;45321;-78
2022/08/09 07:21:35;;;;;;;;;6.33;6.33;;;;;;;;5098738;27;45411;-78
2022/08/09 07:24:01;;;;;;;;;7.33;6.33;;;;;;;;5098828;27;45237;-78
2022/08/09 07:26:26;;;;;;;;;7.33;7.00;;;;;;;;5098840;27;45309;-76
2022/08/09 07:28:51;;;;;;;;;11.00;7.00;;;;;;;;5098821;27;45482;-79
2022/08/09 07:31:16;;;;;;;;;7.67;5.67;;;;;;;;5098798;27;45538;-77
2022/08/09 07:33:43;;;;;;;;;7.67;7.00;;;;;;;;5098603;27;45399;-80
2022/08/09 07:36:09;;;;;;;;;6.67;6.67;;;;;;;;5099095;27;45239;-79
2022/08/09 07:38:34;;;;;;;;;10.67;7.00;;;;;;;;5098799;27;45509;-80
2022/08/09 07:40:59;;;;;;;;;7.67;6.33;;;;;;;;5097979;27;45885;-79
2022/08/09 07:43:24;;;;;;;;;7.67;5.67;;;;;;;;5098549;27;45566;-79
2022/08/09 07:45:50;;;;;;;;;6.00;6.00;;;;;;;;5098493;27;45316;-78
2022/08/09 07:48:15;;;;;;;;;7.00;6.33;;;;;;;;5098497;27;45356;-75
2022/08/09 07:50:42;;;;;;;;;5.67;5.67;;;;;;;;5096970;27;46415;-80
2022/08/09 07:53:07;;;;;;;;;5.67;5.67;;;;;;;;5097292;27;45437;-80
2022/08/09 07:55:33;;;;;;;;;10.67;8.33;;;;;;;;5098256;27;45316;-78
2022/08/09 07:57:58;;;;;;;;;7.67;5.33;;;;;;;;5098385;27;45304;-81
2022/08/09 08:00:24;;;;;;;;;5.00;5.00;;;;;;;;5098058;27;45436;-81
2022/08/09 08:02:50;;;;;;;;;5.00;5.00;;;;;;;;5097993;27;45415;-76
2022/08/09 08:05:15;;;;;;;;;5.67;5.67;;;;;;;;5097900;27;45207;-80
2022/08/09 08:07:40;;;;;;;;;4.67;4.67;;;;;;;;5098196;27;45298;-78
2022/08/09 08:10:06;;;;;;;;;8.33;5.67;;;;;;;;5097914;27;46380;-79
2022/08/09 08:12:32;;;;;;;;;7.00;5.67;;;;;;;;5079666;27;45348;-82
2022/08/09 08:14:57;;;;;;;;;4.00;4.00;;;;;;;;5098018;27;45300;-80
2022/08/09 08:17:23;;;;;;;;;5.67;5.33;;;;;;;;5098099;27;45302;-81
2022/08/09 08:19:48;;;;;;;;;6.00;5.33;;;;;;;;5097692;27;46424;-79
2022/08/09 08:22:13;;;;;;;;;6.00;5.33;;;;;;;;5097198;27;45602;-81
2022/08/09 08:24:39;;;;;;;;;5.00;5.00;;;;;;;;5098207;27;45241;-79
2022/08/09 08:27:04;;;;;;;;;5.67;4.00;;;;;;;;5098005;27;45311;-79
2022/08/09 08:29:29;;;;;;;;;4.33;3.00;;;;;;;;5097584;27;46996;-76
2022/08/09 08:31:55;;;;;;;;;7.67;6.00;;;;;;;;5098124;27;45504;-78
2022/08/09 08:34:21;;;;;;;;;4.67;4.00;;;;;;;;5097964;27;45257;-80
2022/08/09 08:36:46;;;;;;;;;5.00;4.00;;;;;;;;5097841;27;45443;-77
2022/08/09 08:39:12;;;;;;;;;7.67;5.00;;;;;;;;5097670;27;45632;-78
2022/08/09 08:41:37;;;;;;;;;4.67;4.67;;;;;;;;5097241;27;45312;-80
2022/08/09 08:44:03;;;;;;;;;5.00;5.00;;;;;;;;5097584;27;45319;-77
2022/08/09 08:46:32;;;;;;;;;5.00;5.00;;;;;;;;5097783;27;45376;-82
2022/08/09 08:48:57;;;;;;;;;5.00;5.00;;;;;;;;5097430;27;46661;-80
2022/08/09 08:51:23;;;;;;;;;5.00;5.00;;;;;;;;5097379;27;45359;-80
2022/08/09 08:53:51;;;;;;;;;8.00;5.00;;;;;;;;5097462;27;45455;-78
2022/08/09 08:56:16;;;;;;;;;7.00;5.00;;;;;;;;5097497;27;45383;-80
2022/08/09 08:58:42;;;;;;;;;6.67;5.00;;;;;;;;5097121;27;47682;-79
2022/08/09 09:01:08;;;;;;;;;4.00;3.00;;;;;;;;5097430;27;45273;-80
2022/08/09 09:03:34;;;;;;;;;4.00;4.00;;;;;;;;5100338;27;45205;-79
2022/08/09 09:06:00;;;;;;;;;3.00;3.00;;;;;;;;5100825;27;45352;-81
2022/08/09 09:08:27;;;;;;;;;3.00;3.00;;;;;;;;5101064;27;45446;-78
2022/08/09 09:10:53;;;;;;;;;6.33;3.67;;;;;;;;5100400;27;45363;-80
2022/08/09 09:13:18;;;;;;;;;3.33;3.33;;;;;;;;5100731;27;45282;-80
2022/08/09 09:15:44;;;;;;;;;4.67;4.00;;;;;;;;5100926;27;45518;-81
2022/08/09 09:18:14;;;;;;;;;6.00;4.00;;;;;;;;5100473;27;46451;-77
2022/08/09 09:20:39;;;;;;;;;5.00;4.00;;;;;;;;5100529;27;45373;-75
2022/08/09 09:23:04;;;;;;;;;6.67;4.67;;;;;;;;5100765;27;45349;-79
2022/08/09 09:25:37;;;;;;;;;4.67;4.00;;;;;;;;5100807;27;45332;-75
2022/08/09 09:28:03;;;;;;;;;7.00;7.00;;;;;;;;5100390;27;46514;-81
2022/08/09 09:30:29;;;;;;;;;5.00;5.00;;;;;;;;5099975;27;45981;-77
2022/08/09 09:33:08;;;;;;;;;4.33;4.33;;;;;;;;5100846;27;45329;-83
2022/08/09 09:35:49;;;;;;;;;3.67;3.00;;;;;;;;5100646;27;45435;-81
2022/08/09 09:38:14;;;;;;;;;4.00;4.00;;;;;;;;5100324;27;45245;-81
2022/08/09 09:40:40;;;;;;;;;4.00;4.00;;;;;;;;5100259;27;45471;-80
2022/08/09 09:43:06;;;;;;;;;3.67;3.67;;;;;;;;5100453;27;45424;-80
2022/08/09 09:45:45;;;;;;;;;6.00;4.67;;;;;;;;5100471;27;45447;-79
2022/08/09 09:48:10;;;;;;;;;4.00;2.67;;;;;;;;5099919;27;47350;-79
2022/08/09 09:50:39;;;;;;;;;3.00;3.00;;;;;;;;5100069;27;45377;-78
2022/08/09 09:53:05;;;;;;;;;5.33;3.33;;;;;;;;5100013;27;45306;-80
2022/08/09 09:55:30;;;;;;;;;4.00;4.00;;;;;;;;5100441;27;45359;-82
2022/08/09 09:58:00;;;;;;;;;8.00;5.67;;;;;;;;5099985;27;45534;-77
2022/08/09 10:00:26;;;;;;;;;4.00;4.00;;;;;;;;5099981;27;45362;-80
2022/08/09 10:02:51;;;;;;;;;4.00;4.00;;;;;;;;5099898;27;45268;-81
2022/08/09 10:05:17;;;;;;;;;3.67;2.00;;;;;;;;5100223;27;45261;-80
2022/08/09 10:07:42;;;;;;;;;2.00;2.00;;;;;;;;5099643;27;46244;-78
2022/08/09 10:10:07;;;;;;;;;2.33;2.00;;;;;;;;5099964;27;45395;-79
2022/08/09 10:12:35;;;;;;;;;6.67;4.33;;;;;;;;5099830;27;45311;-84
2022/08/09 10:15:10;;;;;;;;;4.67;3.00;;;;;;;;5098941;27;45166;-78
2022/08/09 10:17:36;;;;;;;;;2.00;2.00;;;;;;;;5098679;27;45538;-84
2022/08/09 10:20:22;;;;;;;;;2.00;2.00;;;;;;;;5099645;27;45214;-79
2022/08/09 10:22:49;;;;;;;;;2.67;1.00;;;;;;;;5098856;27;45285;-79
2022/08/09 10:25:15;;;;;;;;;3.00;3.00;;;;;;;;5099748;27;45278;-76
2022/08/09 10:27:42;;;;;;;;;2.50;2.50;;;;;;;;5099436;27;45340;-84
2022/08/09 10:30:07;;;;;;;;;1.75;1.75;;;;;;;;5099511;27;45335;-81
2022/08/09 10:32:33;;;;;;;;;3.00;1.50;;;;;;;;5099642;27;45335;-83
2022/08/09 10:34:59;;;;;;;;;1.50;1.50;;;;;;;;5099999;27;45376;-84
2022/08/09 10:37:25;;;;;;;;;2.00;2.00;;;;;;;;5099820;27;45395;-83
2022/08/09 10:39:51;;;;;;;;;2.75;2.00;;;;;;;;5099533;27;45439;-83
2022/08/09 10:42:17;;;;;;;;;0.25;0.25;;;;;;;;5099324;27;45158;-82
2022/08/09 10:44:46;;;;;;;;;1.00;1.00;;;;;;;;5099523;27;45380;-85
2022/08/09 10:47:24;;;;;;;;;1.00;1.00;;;;;;;;5098866;27;46437;-81
2022/08/09 10:50:00;;;;;;;;;2.00;2.00;;;;;;;;5099223;27;45360;-81
2022/08/09 10:52:25;;;;;;;;;0.25;0.25;;;;;;;;5099169;27;45394;-83
2022/08/09 10:54:52;;;;;;;;;2.00;1.00;;;;;;;;5099450;27;45195;-85
2022/08/09 10:57:17;;;;;;;;;2.00;1.25;;;;;;;;5098933;27;46440;-83
2022/08/09 10:59:44;;;;;;;;;2.00;2.00;;;;;;;;5098867;27;45213;-81
2022/08/09 11:02:15;;;;;;;;;1.00;1.00;;;;;;;;5099175;27;45230;-82
2022/08/09 11:04:41;;;;;;;;;2.50;1.25;;;;;;;;5099102;27;45355;-82
2022/08/09 11:07:07;;;;;;;;;1.50;1.50;;;;;;;;5098548;27;46220;-81
2022/08/09 11:09:38;;;;;;;;;0.00;0.00;;;;;;;;5098970;27;45391;-81
2022/08/09 11:12:10;;;;;;;;;1.00;1.00;;;;;;;;5098885;27;45551;-79
2022/08/09 11:14:36;;;;;;;;;1.00;1.00;;;;;;;;5099053;27;45514;-77
2022/08/09 11:17:02;;;;;;;;;2.00;2.00;;;;;;;;5098501;27;46651;-80
2022/08/09 11:19:49;;;;;;;;;1.00;1.00;;;;;;;;5099302;27;45384;-81
2022/08/09 11:22:15;;;;;;;;;1.67;1.67;;;;;;;;5098851;27;45297;-80
2022/08/09 11:24:55;;;;;;;;;2.67;1.67;;;;;;;;5098452;27;45229;-82
2022/08/09 11:27:27;;;;;;;;;0.67;0.67;;;;;;;;5098599;27;45537;-81
2022/08/09 11:29:54;;;;;;;;;3.00;2.67;;;;;;;;5098473;27;45235;-77
2022/08/09 11:32:42;;;;;;;;;2.00;2.00;;;;;;;;5098733;27;45328;-80
2022/08/09 11:35:14;;;;;;;;;2.00;2.00;;;;;;;;5088846;27;45538;-80
2022/08/09 11:37:40;;;;;;;;;2.67;2.67;;;;;;;;5098429;27;46197;-82
2022/08/09 11:40:07;;;;;;;;;1.67;1.67;;;;;;;;5098367;27;45377;-79
2022/08/09 11:42:39;;;;;;;;;3.33;2.67;;;;;;;;5098407;27;45353;-78
2022/08/09 11:45:16;;;;;;;;;2.00;1.67;;;;;;;;5098524;27;45614;-82
2022/08/09 11:47:45;;;;;;;;;4.00;2.33;;;;;;;;5098230;27;46698;-79
2022/08/09 11:50:10;;;;;;;;;2.00;2.00;;;;;;;;5098272;27;45353;-78
2022/08/09 11:52:55;;;;;;;;;3.00;3.00;;;;;;;;5098367;27;45356;-79
2022/08/09 11:55:37;;;;;;;;;2.00;2.00;;;;;;;;5098387;27;45213;-82
2022/08/09 11:58:04;;;;;;;;;3.33;3.33;;;;;;;;5097708;27;47063;-80
2022/08/09 12:00:30;;;;;;;;;2.00;2.00;;;;;;;;5098352;27;45395;-80
2022/08/09 12:02:56;;;;;;;;;4.00;2.67;;;;;;;;5098126;27;45303;-80
2022/08/09 12:05:28;;;;;;;;;2.00;2.00;;;;;;;;5098247;27;45467;-82
2022/08/09 12:07:53;;;;;;;;;4.33;3.00;;;;;;;;5098239;27;46118;-84
2022/08/09 12:10:19;;;;;;;;;3.67;3.67;;;;;;;;5097835;27;45379;-79
2022/08/09 12:12:47;;;;;;;;;2.67;2.67;;;;;;;;5098180;27;45521;-79
2022/08/09 12:15:23;;;;;;;;;4.67;3.00;;;;;;;;5098436;27;45509;-79
2022/08/09 12:17:49;;;;;;;;;2.33;2.00;;;;;;;;5097652;27;46101;-80
2022/08/09 12:20:15;;;;;;;;;2.00;1.67;;;;;;;;5097821;27;45278;-80
2022/08/09 12:22:41;;;;;;;;;2.00;2.00;;;;;;;;5097908;27;45451;-83
2022/08/09 12:25:16;;;;;;;;;2.00;2.00;;;;;;;;5098333;27;45360;-82
2022/08/09 12:27:42;;;;;;;;;3.00;3.00;;;;;;;;5079373;27;47176;-78
2022/08/09 12:30:08;;;;;;;;;7.00;6.00;;;;;;;;5097661;27;45365;-82
2022/08/09 12:32:34;;;;;;;;;4.67;3.00;;;;;;;;5098130;27;45432;-81
2022/08/09 12:35:01;;;;;;;;;2.00;2.00;;;;;;;;5098343;27;45418;-79
2022/08/09 12:37:33;;;;;;;;;3.33;3.33;;;;;;;;5098489;27;45248;-82
2022/08/09 12:40:09;;;;;;;;;2.00;2.00;;;;;;;;5100941;27;45373;-82
2022/08/09 12:42:34;;;;;;;;;8.33;7.33;;;;;;;;5101447;27;45317;-82
2022/08/09 12:45:00;;;;;;;;;5.00;5.00;;;;;;;;5101483;27;45226;-83
2022/08/09 12:47:26;;;;;;;;;7.00;4.00;;;;;;;;5101140;27;45427;-77
2022/08/09 12:52:39;;;;;;;;;3.00;2.33;;;;;;;;5101147;27;45236;-78
2022/08/09 12:55:06;;;;;;;;;6.67;4.00;;;;;;;;5101220;27;45380;-82
2022/08/09 12:57:36;;;;;;;;;1.67;1.67;;;;;;;;5082382;27;47321;-78
2022/08/09 13:00:16;;;;;;;;;5.33;3.00;;;;;;;;5100883;27;45476;-81
2022/08/09 13:02:47;;;;;;;;;2.00;2.00;;;;;;;;5100957;27;45474;-77
2022/08/09 13:05:13;;;;;;;;;2.00;2.00;;;;;;;;5101096;27;45384;-82
2022/08/09 13:07:38;;;;;;;;;3.00;2.33;;;;;;;;5100478;27;45276;-80
2022/08/09 13:10:04;;;;;;;;;3.00;3.00;;;;;;;;5100843;27;45321;-82
2022/08/09 13:12:29;;;;;;;;;3.00;2.00;;;;;;;;5100729;27;45349;-78
2022/08/09 13:15:04;;;;;;;;;2.00;2.00;;;;;;;;5101315;27;45626;-81
2022/08/09 13:17:29;;;;;;;;;5.00;3.00;;;;;;;;5100335;27;46676;-79
2022/08/09 13:19:57;;;;;;;;;6.33;3.00;;;;;;;;5100636;27;45386;-80
2022/08/09 13:22:24;;;;;;;;;1.33;1.33;;;;;;;;5100832;27;45387;-82
2022/08/09 13:24:52;;;;;;;;;4.33;2.00;;;;;;;;5082290;27;45505;-81
2022/08/09 13:27:29;;;;;;;;;1.67;1.67;;;;;;;;5100323;27;46182;-81
2022/08/09 13:29:56;;;;;;;;;2.00;2.00;;;;;;;;5100255;27;45328;-81
2022/08/09 13:32:22;;;;;;;;;2.00;2.00;;;;;;;;5100605;27;45448;-78
2022/08/09 13:34:48;;;;;;;;;3.00;2.00;;;;;;;;5100731;27;45398;-80
2022/08/09 13:37:14;;;;;;;;;3.00;3.00;;;;;;;;5100153;27;46334;-79
2022/08/09 13:39:39;;;;;;;;;3.33;3.33;;;;;;;;5100168;27;45376;-79
2022/08/09 13:42:06;;;;;;;;;3.00;2.00;;;;;;;;5100174;27;45361;-75
2022/08/09 13:44:31;;;;;;;;;1.00;1.00;;;;;;;;5100549;27;45349;-77
2022/08/09 13:46:57;;;;;;;;;1.67;1.67;;;;;;;;5100034;27;46173;-82
2022/08/09 13:49:22;;;;;;;;;3.00;3.00;;;;;;;;5100230;27;45333;-81
2022/08/09 13:51:48;;;;;;;;;3.00;3.00;;;;;;;;5100218;27;45285;-81
2022/08/09 13:54:13;;;;;;;;;2.67;2.67;;;;;;;;5100536;27;45309;-81
2022/08/09 13:56:38;;;;;;;;;4.00;4.00;;;;;;;;5100056;27;45591;-82
2022/08/09 13:59:03;;;;;;;;;3.00;3.00;;;;;;;;5100026;27;45555;-82
2022/08/09 14:01:29;;;;;;;;;4.00;3.00;;;;;;;;5100205;27;45223;-80
2022/08/09 14:03:54;;;;;;;;;2.00;2.00;;;;;;;;5100091;27;45396;-82
2022/08/09 14:06:19;;;;;;;;;2.00;2.00;;;;;;;;5099275;27;46604;-82
2022/08/09 14:08:45;;;;;;;;;3.00;3.00;;;;;;;;5099626;27;45296;-80
2022/08/09 14:11:10;;;;;;;;;2.00;2.00;;;;;;;;5100037;27;45290;-82
2022/08/09 14:13:35;;;;;;;;;2.00;2.00;;;;;;;;5099644;27;45538;-83
2022/08/09 14:16:01;;;;;;;;;2.67;2.67;;;;;;;;5099715;27;45498;-84
2022/08/09 14:18:26;;;;;;;;;3.00;3.00;;;;;;;;5099849;27;45381;-79
2022/08/09 14:20:52;;;;;;;;;5.00;3.33;;;;;;;;5099887;27;45396;-82
2022/08/09 14:23:17;;;;;;;;;3.00;3.00;;;;;;;;5099911;27;45344;-76
2022/08/09 14:25:42;;;;;;;;;3.00;2.00;;;;;;;;5099547;27;46444;-80
2022/08/09 14:28:08;;;;;;;;;2.33;2.33;;;;;;;;5100015;27;45386;-81
2022/08/09 14:30:33;;;;;;;;;3.33;3.33;;;;;;;;5099777;27;45452;-81
2022/08/09 14:32:59;;;;;;;;;4.00;3.00;;;;;;;;5099408;27;45385;-80
2022/08/09 14:35:24;;;;;;;;;4.00;3.00;;;;;;;;5099463;27;45522;-81
2022/08/09 14:37:49;;;;;;;;;3.00;3.00;;;;;;;;5099483;27;45303;-84